createdAt,value
2018-12-29T00:00:43.949Z,15.80
2018-12-29T00:03:13.351Z,20.73
2018-12-29T00:05:42.759Z,23.43
2018-12-29T00:08:12.205Z,21.67
2018-12-29T00:10:41.562Z,23.30
2018-12-29T00:13:10.928Z,27.90
2018-12-29T00:15:40.413Z,28.63
2018-12-29T00:18:09.758Z,28.90
2018-12-29T00:20:39.220Z,28.27
2018-12-29T00:23:08.739Z,26.67
2018-12-29T00:25:38.163Z,27.93
2018-12-29T00:28:07.539Z,24.00
2018-12-29T00:30:37.000Z,23.93
2018-12-29T00:33:06.665Z,22.33
2018-12-29T00:35:36.135Z,23.87
2018-12-29T00:38:05.629Z,25.70
2018-12-29T00:40:34.994Z,23.20
2018-12-29T00:43:04.468Z,23.27
2018-12-29T00:45:33.959Z,25.00
2018-12-29T00:48:03.400Z,22.57
2018-12-29T00:50:32.808Z,20.60
2018-12-29T00:53:02.225Z,19.33
2018-12-29T00:55:31.680Z,20.60
2018-12-29T00:58:01.048Z,22.07
2018-12-29T01:00:30.517Z,21.27
2018-12-29T01:02:59.949Z,25.43
2018-12-29T01:05:29.378Z,24.43
2018-12-29T01:07:58.892Z,30.10
2018-12-29T01:10:28.312Z,36.73
2018-12-29T01:12:57.677Z,36.80
2018-12-29T01:15:27.199Z,33.93
2018-12-29T01:17:56.613Z,32.50
2018-12-29T01:20:25.968Z,31.07
2018-12-29T01:22:55.427Z,34.10
2018-12-29T01:25:24.793Z,35.00
2018-12-29T01:27:54.180Z,30.47
2018-12-29T01:30:23.596Z,28.53
2018-12-29T01:32:52.971Z,21.07
2018-12-29T01:35:22.385Z,18.77
2018-12-29T01:37:51.827Z,19.33
2018-12-29T01:40:21.296Z,18.93
2018-12-29T01:42:50.655Z,20.63
2018-12-29T01:45:20.145Z,21.90
2018-12-29T01:47:49.597Z,27.20
2018-12-29T01:50:19.032Z,21.67
2018-12-29T01:52:48.513Z,17.33
2018-12-29T01:55:17.937Z,17.93
2018-12-29T01:57:47.337Z,21.50
2018-12-29T02:00:16.787Z,19.03
2018-12-29T02:02:46.209Z,16.57
2018-12-29T02:05:15.569Z,17.17
2018-12-29T02:07:44.977Z,17.63
2018-12-29T02:10:14.656Z,36.30
2018-12-29T02:12:44.073Z,22.03
2018-12-29T02:15:13.545Z,17.97
2018-12-29T02:17:42.893Z,17.43
2018-12-29T02:20:12.250Z,24.30
2018-12-29T02:22:41.837Z,19.20
2018-12-29T02:25:11.155Z,18.40
2018-12-29T02:27:40.478Z,17.10
2018-12-29T02:30:09.984Z,21.80
2018-12-29T02:32:41.129Z,20.53
2018-12-29T02:35:10.566Z,14.77
2018-12-29T02:37:40.073Z,22.47
2018-12-29T02:40:09.511Z,22.20
2018-12-29T02:42:38.939Z,18.80
2018-12-29T02:45:08.446Z,16.13
2018-12-29T02:47:38.029Z,17.57
2018-12-29T02:50:07.478Z,17.00
2018-12-29T02:52:36.950Z,21.13
2018-12-29T02:55:06.493Z,23.20
2018-12-29T02:57:35.857Z,22.27
2018-12-29T03:00:05.423Z,21.00
2018-12-29T03:02:34.829Z,20.60
2018-12-29T03:05:04.373Z,22.07
2018-12-29T03:07:33.873Z,23.70
2018-12-29T03:10:03.561Z,22.57
2018-12-29T03:12:32.933Z,23.20
2018-12-29T03:15:02.346Z,22.70
2018-12-29T03:17:31.709Z,19.57
2018-12-29T03:20:01.047Z,22.90
2018-12-29T03:22:30.510Z,19.80
2018-12-29T03:25:00.023Z,20.27
2018-12-29T03:27:29.421Z,19.23
2018-12-29T03:29:58.875Z,15.90
2018-12-29T03:32:28.292Z,16.03
2018-12-29T03:34:57.670Z,15.77
2018-12-29T03:37:27.057Z,17.90
2018-12-29T03:39:56.408Z,14.70
2018-12-29T03:42:25.868Z,15.77
2018-12-29T03:44:55.318Z,14.30
2018-12-29T03:47:24.672Z,14.20
2018-12-29T03:49:54.050Z,13.93
2018-12-29T03:52:23.526Z,15.37
2018-12-29T03:54:53.069Z,14.60
2018-12-29T03:57:22.454Z,16.60
2018-12-29T03:59:51.894Z,15.17
2018-12-29T04:02:21.256Z,16.60
2018-12-29T04:04:50.716Z,13.80
2018-12-29T04:07:20.113Z,13.90
2018-12-29T04:09:49.465Z,14.03
2018-12-29T04:12:21.481Z,13.73
2018-12-29T04:14:51.038Z,13.83
2018-12-29T04:17:20.378Z,17.57
2018-12-29T04:19:49.769Z,17.73
2018-12-29T04:22:19.210Z,15.37
2018-12-29T04:24:48.586Z,19.53
2018-12-29T04:27:17.957Z,19.97
2018-12-29T04:29:47.389Z,19.50
2018-12-29T04:32:16.751Z,24.20
2018-12-29T04:34:46.224Z,21.90
2018-12-29T04:37:15.698Z,22.27
2018-12-29T04:39:45.059Z,24.30
2018-12-29T04:42:14.497Z,24.07
2018-12-29T04:44:43.975Z,28.27
2018-12-29T04:47:13.340Z,27.83
2018-12-29T04:49:42.698Z,24.03
2018-12-29T04:52:12.211Z,23.90
2018-12-29T04:54:41.578Z,21.27
2018-12-29T04:57:10.911Z,24.23
2018-12-29T04:59:40.352Z,24.80
2018-12-29T05:02:09.771Z,24.67
2018-12-29T05:04:39.119Z,22.47
2018-12-29T05:07:08.547Z,26.43
2018-12-29T05:09:37.897Z,26.20
2018-12-29T05:12:07.273Z,31.07
2018-12-29T05:14:37.143Z,46.70
2018-12-29T05:17:06.576Z,57.40
2018-12-29T05:19:35.926Z,61.43
2018-12-29T05:22:05.381Z,70.60
2018-12-29T05:24:34.714Z,67.97
2018-12-29T05:27:04.063Z,67.80
2018-12-29T05:29:33.550Z,64.90
2018-12-29T05:32:03.475Z,53.23
2018-12-29T05:34:32.885Z,49.37
2018-12-29T05:37:02.322Z,48.03
2018-12-29T05:39:31.726Z,46.27
2018-12-29T05:42:01.042Z,45.03
2018-12-29T05:44:30.449Z,37.63
2018-12-29T05:46:59.818Z,31.80
2018-12-29T05:49:29.268Z,24.47
2018-12-29T05:51:58.709Z,23.43
2018-12-29T05:54:28.054Z,22.53
2018-12-29T05:56:57.404Z,22.10
2018-12-29T05:59:26.811Z,23.93
2018-12-29T06:01:56.262Z,22.13
2018-12-29T06:04:25.702Z,22.13
2018-12-29T06:06:55.138Z,18.97
2018-12-29T06:09:24.594Z,17.13
2018-12-29T06:11:53.974Z,16.60
2018-12-29T06:14:23.361Z,16.40
2018-12-29T06:16:52.796Z,14.47
2018-12-29T06:19:22.193Z,9.13
2018-12-29T06:21:51.641Z,10.33
2018-12-29T06:24:20.985Z,8.60
2018-12-29T06:26:50.299Z,7.23
2018-12-29T06:29:19.829Z,9.17
2018-12-29T06:31:49.455Z,6.53
2018-12-29T06:34:18.902Z,6.10
2018-12-29T06:36:48.420Z,15.53
2018-12-29T06:39:17.885Z,9.47
2018-12-29T06:41:47.343Z,9.80
2018-12-29T06:44:16.850Z,12.70
2018-12-29T06:46:46.246Z,10.30
2018-12-29T06:49:15.598Z,8.27
2018-12-29T06:51:45.089Z,7.67
2018-12-29T06:54:14.542Z,7.07
2018-12-29T06:56:44.007Z,7.80
2018-12-29T06:59:13.449Z,10.33
2018-12-29T07:01:42.809Z,11.20
2018-12-29T07:04:12.169Z,10.83
2018-12-29T07:06:41.585Z,11.80
2018-12-29T07:09:10.956Z,9.27
2018-12-29T07:11:40.346Z,11.10
2018-12-29T07:14:09.801Z,12.50
2018-12-29T07:16:42.406Z,11.83
2018-12-29T07:19:10.322Z,16.33
2018-12-29T07:21:39.735Z,16.33
2018-12-29T07:24:09.111Z,15.10
2018-12-29T07:26:38.527Z,15.57
2018-12-29T07:29:07.961Z,19.63
2018-12-29T07:31:37.534Z,17.47
2018-12-29T07:34:06.981Z,18.03
2018-12-29T07:36:36.410Z,31.67
2018-12-29T07:39:07.215Z,32.63
2018-12-29T07:41:36.667Z,36.40
2018-12-29T07:44:06.072Z,40.07
2018-12-29T07:46:35.498Z,37.57
2018-12-29T07:49:04.942Z,40.07
2018-12-29T07:51:34.400Z,36.63
2018-12-29T07:54:03.869Z,38.90
2018-12-29T07:56:33.231Z,37.33
2018-12-29T07:59:02.705Z,36.87
2018-12-29T08:01:32.068Z,42.10
2018-12-29T08:04:01.524Z,39.97
2018-12-29T08:06:31.020Z,41.00
2018-12-29T08:09:00.494Z,45.93
2018-12-29T08:11:29.918Z,52.50
2018-12-29T08:13:59.405Z,57.13
2018-12-29T08:16:28.824Z,60.17
2018-12-29T08:18:58.160Z,59.10
2018-12-29T08:21:27.596Z,60.30
2018-12-29T08:23:57.040Z,67.63
2018-12-29T08:26:26.506Z,57.97
2018-12-29T08:28:56.029Z,52.60
2018-12-29T08:31:25.470Z,41.27
2018-12-29T08:33:54.937Z,40.30
2018-12-29T08:36:24.434Z,39.00
2018-12-29T08:38:53.857Z,38.13
2018-12-29T08:41:23.211Z,37.33
2018-12-29T08:43:52.659Z,30.20
2018-12-29T08:46:21.986Z,25.43
2018-12-29T08:48:51.344Z,24.10
2018-12-29T08:51:20.816Z,22.63
2018-12-29T08:53:50.258Z,21.50
2018-12-29T08:56:19.619Z,17.93
2018-12-29T08:58:49.011Z,20.27
2018-12-29T09:01:18.344Z,17.83
2018-12-29T09:03:47.723Z,14.50
2018-12-29T09:06:17.269Z,13.87
2018-12-29T09:08:46.616Z,13.70
2018-12-29T09:11:15.950Z,8.53
2018-12-29T09:13:45.412Z,9.23
2018-12-29T09:16:14.773Z,12.40
2018-12-29T09:18:49.710Z,7.80
2018-12-29T09:21:15.236Z,8.53
2018-12-29T09:23:44.570Z,10.07
2018-12-29T09:26:14.002Z,13.97
2018-12-29T09:28:43.380Z,18.40
2018-12-29T09:31:12.731Z,18.67
2018-12-29T09:33:42.235Z,16.80
2018-12-29T09:36:11.739Z,20.80
2018-12-29T09:38:41.100Z,18.30
2018-12-29T09:41:10.537Z,19.00
2018-12-29T09:43:39.965Z,21.97
2018-12-29T09:46:09.295Z,19.23
2018-12-29T09:48:38.637Z,18.13
2018-12-29T09:51:08.111Z,13.20
2018-12-29T09:53:37.486Z,12.97
2018-12-29T09:56:06.862Z,16.70
2018-12-29T09:58:36.798Z,18.03
2018-12-29T10:01:06.155Z,27.83
2018-12-29T10:03:35.620Z,19.27
2018-12-29T10:06:05.100Z,14.57
2018-12-29T10:08:34.456Z,19.57
2018-12-29T10:11:03.892Z,21.50
2018-12-29T10:13:33.296Z,22.97
2018-12-29T10:16:02.660Z,23.97
2018-12-29T10:18:32.102Z,29.03
2018-12-29T10:21:01.600Z,32.60
2018-12-29T10:23:31.053Z,27.93
2018-12-29T10:26:00.433Z,34.10
2018-12-29T10:28:30.227Z,32.73
2018-12-29T10:30:59.689Z,38.77
2018-12-29T10:33:29.067Z,33.27
2018-12-29T10:35:58.575Z,28.53
2018-12-29T10:38:28.068Z,23.37
2018-12-29T10:40:57.462Z,23.43
2018-12-29T10:43:26.892Z,27.57
2018-12-29T10:45:56.307Z,33.33
2018-12-29T10:48:25.737Z,34.33
2018-12-29T10:50:55.136Z,38.87
2018-12-29T10:53:24.580Z,34.10
2018-12-29T10:55:53.988Z,42.17
2018-12-29T10:58:23.430Z,40.30
2018-12-29T11:00:52.791Z,45.60
2018-12-29T11:03:22.491Z,48.90
2018-12-29T11:05:51.965Z,35.47
2018-12-29T11:08:21.415Z,41.53
2018-12-29T11:10:50.843Z,41.10
2018-12-29T11:13:20.361Z,50.30
2018-12-29T11:15:49.777Z,55.23
2018-12-29T11:18:19.202Z,59.60
2018-12-29T11:20:48.579Z,51.30
2018-12-29T11:23:17.943Z,53.23
2018-12-29T11:25:47.377Z,54.47
2018-12-29T11:28:16.859Z,56.83
2018-12-29T11:30:47.693Z,50.20
2018-12-29T11:33:17.509Z,52.10
2018-12-29T11:35:47.071Z,57.57
2018-12-29T11:38:16.525Z,58.83
2018-12-29T11:40:45.948Z,52.63
2018-12-29T11:43:16.610Z,51.53
2018-12-29T11:45:46.084Z,49.20
2018-12-29T11:48:18.848Z,50.13
2018-12-29T11:50:48.258Z,46.43
2018-12-29T11:53:17.705Z,47.23
2018-12-29T11:55:47.680Z,47.10
2018-12-29T11:58:17.122Z,47.83
2018-12-29T12:00:46.560Z,49.63
2018-12-29T12:03:16.041Z,51.47
2018-12-29T12:05:45.480Z,50.43
2018-12-29T12:08:14.938Z,47.87
2018-12-29T12:10:44.480Z,53.50
2018-12-29T12:13:13.925Z,46.20
2018-12-29T12:15:43.349Z,47.27
2018-12-29T12:18:13.496Z,44.77
2018-12-29T12:20:42.946Z,51.23
2018-12-29T12:23:12.399Z,46.47
2018-12-29T12:25:41.893Z,48.50
2018-12-29T12:28:11.334Z,53.53
2018-12-29T12:30:40.779Z,75.60
2018-12-29T12:33:10.949Z,53.87
2018-12-29T12:35:40.360Z,59.53
2018-12-29T12:38:10.309Z,49.93
2018-12-29T12:40:39.823Z,53.10
2018-12-29T12:43:09.294Z,58.37
2018-12-29T12:45:39.159Z,60.83
2018-12-29T12:48:08.653Z,58.90
2018-12-29T12:50:38.099Z,53.57
2018-12-29T12:53:07.521Z,52.23
2018-12-29T12:55:37.258Z,52.33
2018-12-29T12:58:07.211Z,53.63
2018-12-29T13:00:37.061Z,51.33
2018-12-29T13:03:07.033Z,51.77
2018-12-29T13:05:36.469Z,52.23
2018-12-29T13:08:06.209Z,54.73
2018-12-29T13:10:35.672Z,46.17
2018-12-29T13:13:05.146Z,51.27
2018-12-29T13:15:34.566Z,46.27
2018-12-29T13:18:04.065Z,51.87
2018-12-29T13:20:33.460Z,101.27
2018-12-29T13:23:02.877Z,81.67
2018-12-29T13:25:32.385Z,70.87
2018-12-29T13:28:01.769Z,91.73
2018-12-29T13:30:31.210Z,55.10
2018-12-29T13:33:00.720Z,51.87
2018-12-29T13:35:30.155Z,52.30
2018-12-29T13:37:59.629Z,57.13
2018-12-29T13:40:29.127Z,54.00
2018-12-29T13:42:58.842Z,56.47
2018-12-29T13:45:28.211Z,55.27
2018-12-29T13:47:57.689Z,61.37
2018-12-29T13:50:27.171Z,64.33
2018-12-29T13:52:56.551Z,60.57
2018-12-29T13:55:26.031Z,60.57
2018-12-29T13:57:55.489Z,63.43
2018-12-29T14:00:24.944Z,66.03
2018-12-29T14:02:54.425Z,69.27
2018-12-29T14:05:23.834Z,62.57
2018-12-29T14:07:53.270Z,63.90
2018-12-29T14:10:22.727Z,61.90
2018-12-29T14:12:52.179Z,64.83
2018-12-29T14:15:21.589Z,60.23
2018-12-29T14:17:51.069Z,60.90
2018-12-29T14:20:20.532Z,62.63
2018-12-29T14:22:49.967Z,64.03
2018-12-29T14:25:19.507Z,68.97
2018-12-29T14:27:48.944Z,63.70
2018-12-29T14:30:18.387Z,97.20
2018-12-29T14:32:47.941Z,67.40
2018-12-29T14:35:17.380Z,62.50
2018-12-29T14:37:46.897Z,66.10
2018-12-29T14:40:16.873Z,57.40
2018-12-29T14:42:46.311Z,59.27
2018-12-29T14:45:15.724Z,63.67
2018-12-29T14:47:45.213Z,66.40
2018-12-29T14:50:14.626Z,65.03
2018-12-29T14:52:44.081Z,61.97
2018-12-29T14:55:13.875Z,65.10
2018-12-29T14:57:43.295Z,70.30
2018-12-29T15:00:12.729Z,120.63
2018-12-29T15:02:42.193Z,76.67
2018-12-29T15:05:11.621Z,67.93
2018-12-29T15:07:41.079Z,75.90
2018-12-29T15:10:10.572Z,80.47
2018-12-29T15:12:39.982Z,76.70
2018-12-29T15:15:10.079Z,76.27
2018-12-29T15:17:39.517Z,88.90
2018-12-29T15:20:09.539Z,73.07
2018-12-29T15:22:39.046Z,69.23
2018-12-29T15:25:08.839Z,64.90
2018-12-29T15:27:38.657Z,67.77
2018-12-29T15:30:08.080Z,72.27
2018-12-29T15:32:37.551Z,67.87
2018-12-29T15:35:07.519Z,76.93
2018-12-29T15:37:36.947Z,80.30
2018-12-29T15:40:06.580Z,84.90
2018-12-29T15:42:36.022Z,94.63
2018-12-29T15:45:05.805Z,117.63
2018-12-29T15:47:35.289Z,96.93
2018-12-29T15:50:04.794Z,117.00
2018-12-29T15:52:34.220Z,117.53
2018-12-29T15:55:03.697Z,102.67
2018-12-29T15:57:33.130Z,100.63
2018-12-29T16:00:02.681Z,96.90
2018-12-29T16:02:32.160Z,76.50
2018-12-29T16:05:01.913Z,70.33
2018-12-29T16:07:31.343Z,70.80
2018-12-29T16:10:00.840Z,74.00
2018-12-29T16:12:30.296Z,74.40
2018-12-29T16:14:59.733Z,80.33
2018-12-29T16:17:29.208Z,86.17
2018-12-29T16:19:59.264Z,81.50
2018-12-29T16:22:28.719Z,76.83
2018-12-29T16:24:58.243Z,79.90
2018-12-29T16:27:27.721Z,96.10
2018-12-29T16:29:57.120Z,100.53
2018-12-29T16:32:26.597Z,85.50
2018-12-29T16:34:56.087Z,78.57
2018-12-29T16:37:25.494Z,84.37
2018-12-29T16:39:54.960Z,75.53
2018-12-29T16:42:24.723Z,76.77
2018-12-29T16:44:54.191Z,81.63
2018-12-29T16:47:23.684Z,76.93
2018-12-29T16:49:53.146Z,81.37
2018-12-29T16:52:23.462Z,79.33
2018-12-29T16:54:53.377Z,78.10
2018-12-29T16:57:22.954Z,77.63
2018-12-29T16:59:52.347Z,80.53
2018-12-29T17:02:21.953Z,78.60
2018-12-29T17:04:51.404Z,80.07
2018-12-29T17:07:20.864Z,76.20
2018-12-29T17:09:50.384Z,73.70
2018-12-29T17:12:20.324Z,75.27
2018-12-29T17:14:49.759Z,68.40
2018-12-29T17:17:19.288Z,79.73
2018-12-29T17:19:48.775Z,69.13
2018-12-29T17:22:18.212Z,65.83
2018-12-29T17:24:47.761Z,66.10
2018-12-29T17:27:17.171Z,69.13
2018-12-29T17:29:46.607Z,70.23
2018-12-29T17:32:16.113Z,60.27
2018-12-29T17:34:45.534Z,62.37
2018-12-29T17:37:14.984Z,65.37
2018-12-29T17:39:44.874Z,65.57
2018-12-29T17:42:14.332Z,59.27
2018-12-29T17:44:43.805Z,61.13
2018-12-29T17:47:13.278Z,62.83
2018-12-29T17:49:42.706Z,61.77
2018-12-29T17:52:12.134Z,62.30
2018-12-29T17:54:41.650Z,70.83
2018-12-29T17:57:11.076Z,75.77
2018-12-29T17:59:40.519Z,71.90
2018-12-29T18:02:10.027Z,76.03
2018-12-29T18:04:39.457Z,80.93
2018-12-29T18:07:08.896Z,71.10
2018-12-29T18:09:38.392Z,73.60
2018-12-29T18:12:07.800Z,69.77
2018-12-29T18:14:37.270Z,66.30
2018-12-29T18:17:06.704Z,64.30
2018-12-29T18:19:36.167Z,59.97
2018-12-29T18:22:05.916Z,61.50
2018-12-29T18:24:35.342Z,55.33
2018-12-29T18:27:04.775Z,53.70
2018-12-29T18:29:34.220Z,58.10
2018-12-29T18:32:03.683Z,52.97
2018-12-29T18:34:33.706Z,54.50
2018-12-29T18:37:03.183Z,48.97
2018-12-29T18:39:32.669Z,51.20
2018-12-29T18:42:02.099Z,52.47
2018-12-29T18:44:31.518Z,52.23
2018-12-29T18:47:01.022Z,52.83
2018-12-29T18:49:38.273Z,52.80
2018-12-29T18:52:01.868Z,50.87
2018-12-29T18:54:31.389Z,50.43
2018-12-29T18:57:00.822Z,48.83
2018-12-29T18:59:30.219Z,52.20
2018-12-29T19:02:00.310Z,53.47
2018-12-29T19:04:29.742Z,50.87
2018-12-29T19:06:59.150Z,49.60
2018-12-29T19:09:28.598Z,47.37
2018-12-29T19:11:58.051Z,51.60
2018-12-29T19:14:27.500Z,48.30
2018-12-29T19:16:56.989Z,47.93
2018-12-29T19:19:26.952Z,46.90
2018-12-29T19:21:56.395Z,48.13
2018-12-29T19:24:25.924Z,48.23
2018-12-29T19:26:55.333Z,50.90
2018-12-29T19:29:24.793Z,44.70
2018-12-29T19:31:54.686Z,48.40
2018-12-29T19:34:24.505Z,51.43
2018-12-29T19:36:53.946Z,46.97
2018-12-29T19:39:23.842Z,45.67
2018-12-29T19:41:55.483Z,47.27
2018-12-29T19:44:24.420Z,50.33
2018-12-29T19:46:54.509Z,52.57
2018-12-29T19:49:23.960Z,49.13
2018-12-29T19:51:53.411Z,146.07
2018-12-29T19:54:26.373Z,207.03
2018-12-29T19:56:56.230Z,166.63
2018-12-29T19:59:25.885Z,138.67
2018-12-29T20:01:55.384Z,58.03
2018-12-29T20:04:24.833Z,48.53
2018-12-29T20:06:54.674Z,48.73
2018-12-29T20:09:24.260Z,57.97
2018-12-29T20:11:54.073Z,56.80
2018-12-29T20:14:24.351Z,59.10
2018-12-29T20:16:54.167Z,66.10
2018-12-29T20:19:23.608Z,57.87
2018-12-29T20:21:53.086Z,61.60
2018-12-29T20:24:22.899Z,62.13
2018-12-29T20:26:52.351Z,52.00
2018-12-29T20:29:21.760Z,53.17
2018-12-29T20:31:51.232Z,54.77
2018-12-29T20:34:20.652Z,52.17
2018-12-29T20:36:50.642Z,54.10
2018-12-29T20:39:20.143Z,56.27
2018-12-29T20:41:49.561Z,56.43
2018-12-29T20:44:18.966Z,62.63
2018-12-29T20:46:48.704Z,63.87
2018-12-29T20:49:18.600Z,66.47
2018-12-29T20:51:48.025Z,72.67
2018-12-29T20:54:17.504Z,60.77
2018-12-29T20:56:46.955Z,59.70
2018-12-29T20:59:16.381Z,48.83
2018-12-29T21:01:46.353Z,63.10
2018-12-29T21:04:15.856Z,66.53
2018-12-29T21:06:45.328Z,73.83
2018-12-29T21:09:14.777Z,75.17
2018-12-29T21:11:44.206Z,65.00
2018-12-29T21:14:13.645Z,62.30
2018-12-29T21:16:43.103Z,55.50
2018-12-29T21:19:12.567Z,51.17
2018-12-29T21:21:42.009Z,48.40
2018-12-29T21:24:12.422Z,44.43
2018-12-29T21:26:42.096Z,38.40
2018-12-29T21:29:11.499Z,40.90
2018-12-29T21:31:40.963Z,41.57
2018-12-29T21:34:10.401Z,40.80
2018-12-29T21:36:39.839Z,36.00
2018-12-29T21:39:09.279Z,36.20
2018-12-29T21:41:38.709Z,35.97
2018-12-29T21:44:08.162Z,39.13
2018-12-29T21:46:37.635Z,37.60
2018-12-29T21:49:07.045Z,33.53
2018-12-29T21:51:36.553Z,35.80
2018-12-29T21:54:06.279Z,39.90
2018-12-29T21:56:35.764Z,39.50
2018-12-29T21:59:05.191Z,41.80
2018-12-29T22:01:34.661Z,38.63
2018-12-29T22:04:04.119Z,35.80
2018-12-29T22:06:33.976Z,36.30
2018-12-29T22:09:04.548Z,36.70
2018-12-29T22:11:34.014Z,39.23
2018-12-29T22:14:04.325Z,38.63
2018-12-29T22:16:33.836Z,37.70
2018-12-29T22:19:03.863Z,38.67
2018-12-29T22:21:33.389Z,43.40
2018-12-29T22:24:02.883Z,47.00
2018-12-29T22:26:32.373Z,48.80
2018-12-29T22:29:01.824Z,42.83
2018-12-29T22:31:32.955Z,40.47
2018-12-29T22:34:02.438Z,30.57
2018-12-29T22:36:31.869Z,27.70
2018-12-29T22:39:01.373Z,30.80
2018-12-29T22:41:30.815Z,34.27
2018-12-29T22:44:00.571Z,28.77
2018-12-29T22:46:30.059Z,23.47
2018-12-29T22:48:59.481Z,22.40
2018-12-29T22:51:28.947Z,25.40
2018-12-29T22:53:58.472Z,24.57
2018-12-29T22:56:28.535Z,24.07
2018-12-29T22:58:57.950Z,28.37
2018-12-29T23:01:27.570Z,29.53
2018-12-29T23:03:57.007Z,46.27
2018-12-29T23:06:26.495Z,43.17
2018-12-29T23:08:55.962Z,45.50
2018-12-29T23:11:25.400Z,59.03
2018-12-29T23:13:54.810Z,55.13
2018-12-29T23:16:24.280Z,44.67
2018-12-29T23:18:54.131Z,43.83
2018-12-29T23:21:23.664Z,53.23
2018-12-29T23:23:53.128Z,53.23
2018-12-29T23:26:22.602Z,48.07
2018-12-29T23:28:52.002Z,54.93
2018-12-29T23:31:21.441Z,62.30
2018-12-29T23:33:50.939Z,61.17
2018-12-29T23:36:21.072Z,59.57
2018-12-29T23:38:50.557Z,54.73
2018-12-29T23:41:20.007Z,57.40
2018-12-29T23:43:49.850Z,55.07
2018-12-29T23:46:19.363Z,48.33
2018-12-29T23:48:48.898Z,43.23
2018-12-29T23:51:18.319Z,48.20
2018-12-29T23:53:47.880Z,46.60
2018-12-29T23:56:17.948Z,27.50
2018-12-29T23:58:47.385Z,21.93
